createdAt,value
2018-11-03T00:00:46.598Z,29.67
2018-11-03T00:03:20.185Z,19.00
2018-11-03T00:05:54.296Z,20.00
2018-11-03T00:08:27.096Z,22.10
2018-11-03T00:11:02.497Z,18.97
2018-11-03T00:13:36.391Z,17.00
2018-11-03T00:16:11.991Z,16.77
2018-11-03T00:18:46.365Z,19.63
2018-11-03T00:21:19.085Z,14.30
2018-11-03T00:23:54.065Z,20.00
2018-11-03T00:26:28.733Z,17.93
2018-11-03T00:29:03.350Z,17.47
2018-11-03T00:31:38.578Z,16.33
2018-11-03T00:34:11.599Z,15.53
2018-11-03T00:36:45.034Z,15.93
2018-11-03T00:39:30.585Z,14.13
2018-11-03T00:42:04.659Z,17.50
2018-11-03T00:44:37.217Z,15.27
2018-11-03T00:47:11.078Z,13.03
2018-11-03T00:49:44.458Z,13.70
2018-11-03T00:52:19.944Z,16.03
2018-11-03T00:54:54.003Z,15.73
2018-11-03T00:57:27.476Z,18.03
2018-11-03T01:00:00.086Z,27.03
2018-11-03T01:02:34.722Z,25.97
2018-11-03T01:05:09.904Z,29.08
2018-11-03T01:08:07.346Z,23.97
2018-11-03T01:10:42.046Z,20.93
2018-11-03T01:13:15.579Z,25.20
2018-11-03T01:15:49.416Z,25.43
2018-11-03T01:18:23.098Z,26.00
2018-11-03T01:20:57.396Z,22.10
2018-11-03T01:23:30.160Z,21.93
2018-11-03T01:26:03.296Z,21.73
2018-11-03T01:28:37.298Z,24.83
2018-11-03T01:31:12.377Z,19.10
2018-11-03T01:33:46.415Z,15.73
2018-11-03T01:36:20.039Z,22.67
2018-11-03T01:38:53.557Z,20.90
2018-11-03T01:41:26.350Z,19.00
2018-11-03T01:43:59.284Z,25.67
2018-11-03T01:46:31.943Z,23.30
2018-11-03T01:49:06.191Z,27.23
2018-11-03T01:51:41.773Z,21.30
2018-11-03T01:54:14.379Z,17.30
2018-11-03T01:56:49.405Z,18.83
2018-11-03T01:59:25.789Z,20.33
2018-11-03T02:01:59.522Z,19.97
2018-11-03T02:04:33.266Z,21.87
2018-11-03T02:07:06.718Z,20.27
2018-11-03T02:09:42.153Z,20.80
2018-11-03T02:12:19.851Z,16.90
2018-11-03T02:15:18.415Z,20.27
2018-11-03T02:18:03.150Z,20.50
2018-11-03T02:20:36.652Z,14.90
2018-11-03T02:23:10.387Z,16.87
2018-11-03T02:25:44.954Z,16.57
2018-11-03T02:28:17.722Z,17.30
2018-11-03T02:30:50.897Z,19.63
2018-11-03T02:33:23.441Z,16.37
2018-11-03T02:35:56.018Z,21.13
2018-11-03T02:38:29.400Z,17.17
2018-11-03T02:41:02.228Z,17.17
2018-11-03T02:43:37.743Z,17.83
2018-11-03T02:46:10.850Z,18.53
2018-11-03T02:48:43.394Z,23.30
2018-11-03T02:51:17.903Z,16.17
2018-11-03T02:53:52.738Z,19.60
2018-11-03T02:56:25.482Z,25.00
2018-11-03T02:58:58.002Z,20.00
2018-11-03T03:01:30.621Z,25.10
2018-11-03T03:04:03.585Z,27.63
2018-11-03T03:06:40.651Z,24.00
2018-11-03T03:09:13.753Z,23.67
2018-11-03T03:11:47.667Z,27.37
2018-11-03T03:14:20.757Z,32.70
2018-11-03T03:16:53.451Z,36.35
2018-11-03T03:19:26.979Z,25.80
2018-11-03T03:22:00.485Z,23.63
2018-11-03T03:24:33.178Z,20.83
2018-11-03T03:27:06.986Z,22.27
2018-11-03T03:29:40.294Z,21.93
2018-11-03T03:32:12.827Z,24.77
2018-11-03T03:34:47.007Z,23.30
2018-11-03T03:37:19.611Z,31.00
2018-11-03T03:39:52.450Z,23.10
2018-11-03T03:42:25.965Z,25.37
2018-11-03T03:44:58.493Z,25.07
2018-11-03T03:47:31.293Z,33.58
2018-11-03T03:50:10.223Z,29.35
2018-11-03T03:52:42.763Z,27.67
2018-11-03T03:55:15.734Z,24.23
2018-11-03T03:57:49.354Z,29.17
2018-11-03T04:00:22.006Z,28.30
2018-11-03T04:02:54.950Z,22.97
2018-11-03T04:05:27.917Z,29.63
2018-11-03T04:08:00.489Z,24.20
2018-11-03T04:10:33.337Z,35.78
2018-11-03T04:13:06.813Z,32.70
2018-11-03T04:15:39.475Z,25.90
2018-11-03T04:18:12.030Z,32.60
2018-11-03T04:20:46.150Z,34.80
2018-11-03T04:23:18.631Z,38.63
2018-11-03T04:25:51.222Z,25.07
2018-11-03T04:28:33.585Z,29.87
2018-11-03T04:31:06.391Z,32.27
2018-11-03T04:33:49.870Z,33.97
2018-11-03T04:36:31.872Z,32.40
2018-11-03T04:39:13.958Z,27.23
2018-11-03T04:41:52.517Z,33.63
2018-11-03T04:44:33.818Z,27.20
2018-11-03T04:47:21.518Z,27.08
2018-11-03T04:50:00.375Z,28.75
2018-11-03T04:52:42.056Z,23.60
2018-11-03T04:55:22.765Z,23.87
2018-11-03T04:58:02.262Z,31.67
2018-11-03T05:00:46.381Z,25.73
2018-11-03T05:03:26.982Z,24.60
2018-11-03T05:06:07.432Z,35.93
2018-11-03T05:08:47.990Z,33.80
2018-11-03T05:11:30.396Z,40.10
2018-11-03T05:14:09.463Z,32.20
2018-11-03T05:16:50.430Z,29.48
2018-11-03T05:19:36.031Z,33.27
2018-11-03T05:22:18.277Z,40.80
2018-11-03T05:24:59.388Z,32.23
2018-11-03T05:27:41.867Z,29.60
2018-11-03T05:30:27.104Z,30.73
2018-11-03T05:33:08.844Z,49.45
2018-11-03T05:35:49.520Z,39.77
2018-11-03T05:38:29.945Z,41.72
2018-11-03T05:41:09.348Z,47.00
2018-11-03T05:43:53.820Z,37.33
2018-11-03T05:46:36.245Z,26.87
2018-11-03T05:49:15.759Z,35.63
2018-11-03T05:51:56.754Z,37.97
2018-11-03T05:55:00.406Z,41.40
2018-11-03T05:57:42.649Z,35.88
2018-11-03T06:00:25.219Z,29.77
2018-11-03T06:03:06.345Z,37.53
2018-11-03T06:05:50.453Z,37.50
2018-11-03T06:08:30.929Z,33.97
2018-11-03T06:11:18.570Z,37.33
2018-11-03T06:14:08.353Z,38.20
2018-11-03T06:16:43.572Z,34.80
2018-11-03T06:19:33.165Z,38.67
2018-11-03T06:22:18.188Z,32.30
2018-11-03T06:24:59.757Z,33.35
2018-11-03T06:27:41.856Z,33.17
2018-11-03T06:30:16.465Z,30.37
2018-11-03T06:32:48.993Z,28.87
2018-11-03T06:35:21.926Z,34.27
2018-11-03T06:37:55.999Z,38.92
2018-11-03T06:40:29.584Z,39.73
2018-11-03T06:43:02.409Z,35.47
2018-11-03T06:45:35.017Z,33.93
2018-11-03T06:48:08.437Z,39.43
2018-11-03T06:50:46.917Z,35.43
2018-11-03T06:53:21.451Z,35.53
2018-11-03T06:55:55.636Z,48.50
2018-11-03T06:58:28.543Z,45.23
2018-11-03T07:01:06.845Z,39.73
2018-11-03T07:04:04.520Z,36.20
2018-11-03T07:06:52.935Z,44.25
2018-11-03T07:09:27.198Z,52.83
2018-11-03T07:12:03.582Z,58.77
2018-11-03T07:14:37.467Z,57.07
2018-11-03T07:17:10.060Z,43.00
2018-11-03T07:19:43.428Z,41.83
2018-11-03T07:22:19.217Z,42.33
2018-11-03T07:24:54.671Z,54.90
2018-11-03T07:27:28.296Z,56.07
2018-11-03T07:30:09.242Z,52.90
2018-11-03T07:32:45.854Z,60.60
2018-11-03T07:35:18.350Z,58.70
2018-11-03T07:37:54.860Z,52.67
2018-11-03T07:40:27.618Z,66.27
2018-11-03T07:43:03.329Z,49.87
2018-11-03T07:45:39.910Z,51.53
2018-11-03T07:48:28.836Z,48.93
2018-11-03T07:51:06.164Z,41.40
2018-11-03T07:53:40.702Z,46.07
2018-11-03T07:56:14.561Z,48.70
2018-11-03T07:58:52.821Z,48.10
2018-11-03T08:01:27.565Z,54.83
2018-11-03T08:04:02.765Z,55.30
2018-11-03T08:06:36.436Z,53.83
2018-11-03T08:09:11.157Z,50.13
2018-11-03T08:11:44.222Z,55.00
2018-11-03T08:14:20.711Z,66.57
2018-11-03T08:17:14.350Z,52.57
2018-11-03T08:19:47.615Z,58.70
2018-11-03T08:22:21.710Z,51.60
2018-11-03T08:24:55.586Z,55.50
2018-11-03T08:27:28.084Z,47.90
2018-11-03T08:30:16.028Z,54.60
2018-11-03T08:32:58.424Z,46.13
2018-11-03T08:35:43.491Z,51.07
2018-11-03T08:38:21.649Z,47.37
2018-11-03T08:40:55.551Z,48.73
2018-11-03T08:43:30.713Z,51.43
2018-11-03T08:46:08.455Z,55.90
2018-11-03T08:48:44.550Z,71.67
2018-11-03T08:51:22.521Z,66.53
2018-11-03T08:54:01.208Z,64.30
2018-11-03T08:56:40.579Z,65.37
2018-11-03T08:59:34.848Z,55.67
2018-11-03T09:02:41.688Z,56.63
2018-11-03T09:05:19.786Z,62.17
2018-11-03T09:08:08.332Z,60.53
2018-11-03T09:10:42.399Z,56.33
2018-11-03T09:13:20.441Z,54.83
2018-11-03T09:16:07.898Z,59.93
2018-11-03T09:18:43.600Z,53.70
2018-11-03T09:21:19.694Z,51.07
2018-11-03T09:23:55.490Z,45.00
2018-11-03T09:26:30.561Z,39.88
2018-11-03T09:29:04.647Z,33.33
2018-11-03T09:31:40.290Z,33.47
2018-11-03T09:34:17.719Z,38.67
2018-11-03T09:36:51.924Z,45.20
2018-11-03T09:39:26.506Z,33.80
2018-11-03T09:42:04.054Z,33.57
2018-11-03T09:44:38.808Z,33.20
2018-11-03T09:47:20.982Z,27.87
2018-11-03T09:49:59.637Z,34.60
2018-11-03T09:52:34.071Z,33.57
2018-11-03T09:55:20.719Z,34.30
2018-11-03T09:58:23.648Z,33.40
2018-11-03T10:01:06.014Z,30.80
2018-11-03T10:03:44.706Z,40.17
2018-11-03T10:06:21.208Z,35.20
2018-11-03T10:08:54.840Z,31.83
2018-11-03T10:11:28.779Z,31.60
2018-11-03T10:14:03.113Z,29.87
2018-11-03T10:16:38.035Z,25.00
2018-11-03T10:19:12.854Z,27.43
2018-11-03T10:21:48.439Z,23.87
2018-11-03T10:24:24.024Z,21.77
2018-11-03T10:27:42.785Z,24.67
2018-11-03T10:30:36.754Z,25.07
2018-11-03T10:33:26.429Z,24.63
2018-11-03T10:36:04.264Z,24.63
2018-11-03T10:38:42.661Z,24.43
2018-11-03T10:41:25.344Z,24.93
2018-11-03T10:43:59.998Z,20.50
2018-11-03T10:46:43.176Z,33.47
2018-11-03T10:49:26.282Z,22.27
2018-11-03T10:52:06.342Z,19.83
2018-11-03T10:54:41.437Z,20.03
2018-11-03T10:57:22.287Z,19.13
2018-11-03T10:59:58.567Z,18.87
2018-11-03T11:02:44.669Z,22.93
2018-11-03T11:05:28.749Z,27.63
2018-11-03T11:08:12.280Z,24.67
2018-11-03T11:10:55.378Z,25.67
2018-11-03T11:13:30.349Z,25.00
2018-11-03T11:16:04.379Z,24.37
2018-11-03T11:18:37.603Z,23.67
2018-11-03T11:21:12.562Z,20.40
2018-11-03T11:23:49.308Z,21.77
2018-11-03T11:26:22.980Z,22.37
2018-11-03T11:29:12.780Z,21.00
2018-11-03T11:31:50.698Z,20.50
2018-11-03T11:34:25.406Z,20.00
2018-11-03T11:36:59.577Z,20.33
2018-11-03T11:39:32.370Z,21.23
2018-11-03T11:42:07.022Z,21.97
2018-11-03T11:44:42.048Z,18.53
2018-11-03T11:47:14.623Z,20.33
2018-11-03T11:49:52.521Z,19.73
2018-11-03T11:52:29.696Z,19.70
2018-11-03T11:55:07.551Z,19.58
2018-11-03T11:57:40.022Z,18.98
2018-11-03T12:00:16.285Z,19.57
2018-11-03T12:02:49.216Z,20.60
2018-11-03T12:05:31.693Z,20.12
2018-11-03T12:08:20.965Z,20.93
2018-11-03T12:11:29.632Z,17.83
2018-11-03T12:14:23.467Z,19.37
2018-11-03T12:17:02.537Z,18.33
2018-11-03T12:19:38.512Z,20.87
2018-11-03T12:22:16.037Z,16.93
2018-11-03T12:24:51.666Z,19.07
2018-11-03T12:27:27.076Z,19.87
2018-11-03T12:30:03.179Z,20.43
2018-11-03T12:32:35.823Z,16.97
2018-11-03T12:35:14.859Z,19.90
2018-11-03T12:37:51.790Z,16.27
2018-11-03T12:40:26.261Z,16.43
2018-11-03T12:43:02.574Z,15.32
2018-11-03T12:45:36.708Z,13.62
2018-11-03T12:48:14.771Z,13.83
2018-11-03T12:50:50.755Z,14.93
2018-11-03T12:53:29.974Z,12.13
2018-11-03T12:56:05.623Z,12.13
2018-11-03T12:58:41.446Z,12.57
2018-11-03T13:01:16.988Z,11.13
2018-11-03T13:04:01.296Z,13.70
2018-11-03T13:06:44.495Z,13.43
2018-11-03T13:09:24.843Z,11.00
2018-11-03T13:12:00.588Z,12.55
2018-11-03T13:14:36.413Z,10.88
2018-11-03T13:17:11.040Z,12.10
2018-11-03T13:19:46.679Z,10.73
2018-11-03T13:22:21.381Z,13.17
2018-11-03T13:24:59.462Z,14.40
2018-11-03T13:27:33.900Z,14.93
2018-11-03T13:30:15.431Z,10.00
2018-11-03T13:32:49.247Z,9.33
2018-11-03T13:35:26.538Z,12.33
2018-11-03T13:38:05.555Z,9.13
2018-11-03T13:40:45.824Z,8.57
2018-11-03T13:43:19.282Z,8.83
2018-11-03T13:45:53.938Z,7.47
2018-11-03T13:48:27.532Z,7.37
2018-11-03T13:51:01.634Z,5.90
2018-11-03T13:53:39.389Z,8.93
2018-11-03T13:56:14.171Z,8.33
2018-11-03T13:58:48.534Z,13.47
2018-11-03T14:01:25.397Z,10.47
2018-11-03T14:03:59.053Z,9.63
2018-11-03T14:06:35.318Z,9.10
2018-11-03T14:09:13.716Z,12.07
2018-11-03T14:11:48.818Z,10.17
2018-11-03T14:14:24.380Z,7.70
2018-11-03T14:16:59.120Z,10.23
2018-11-03T14:19:35.662Z,8.83
2018-11-03T14:22:11.870Z,8.13
2018-11-03T14:24:46.884Z,3.37
2018-11-03T14:27:38.470Z,2.43
2018-11-03T14:30:17.234Z,2.20
2018-11-03T14:32:53.077Z,3.50
2018-11-03T14:35:25.661Z,2.37
2018-11-03T14:38:03.170Z,2.60
2018-11-03T14:40:35.921Z,2.37
2018-11-03T14:43:13.152Z,2.70
2018-11-03T14:45:50.850Z,1.57
2018-11-03T14:48:24.315Z,1.43
2018-11-03T14:50:59.441Z,1.20
2018-11-03T14:53:32.553Z,2.60
2018-11-03T14:56:09.063Z,1.47
2018-11-03T14:58:44.345Z,1.47
2018-11-03T15:01:28.248Z,4.40
2018-11-03T15:04:04.362Z,4.40
2018-11-03T15:06:37.781Z,2.55
2018-11-03T15:09:13.228Z,4.73
2018-11-03T15:11:48.868Z,1.47
2018-11-03T15:14:25.741Z,1.67
2018-11-03T15:17:14.616Z,1.77
2018-11-03T15:19:49.583Z,2.10
2018-11-03T15:22:25.886Z,3.53
2018-11-03T15:24:59.975Z,1.83
2018-11-03T15:27:33.132Z,6.60
2018-11-03T15:30:12.541Z,5.03
2018-11-03T15:32:46.692Z,4.12
2018-11-03T15:35:25.421Z,3.67
2018-11-03T15:38:01.133Z,6.20
2018-11-03T15:40:39.366Z,2.67
2018-11-03T15:43:17.165Z,3.37
2018-11-03T15:45:55.222Z,2.67
2018-11-03T15:48:32.631Z,3.07
2018-11-03T15:51:08.351Z,2.40
2018-11-03T15:53:44.100Z,3.60
2018-11-03T15:56:32.729Z,2.83
2018-11-03T15:59:09.215Z,2.97
2018-11-03T16:01:44.957Z,2.20
2018-11-03T16:04:30.521Z,4.20
2018-11-03T16:07:12.101Z,2.10
2018-11-03T16:09:46.320Z,3.43
2018-11-03T16:12:22.599Z,4.45
2018-11-03T16:15:03.951Z,3.37
2018-11-03T16:17:47.472Z,2.73
2018-11-03T16:20:21.498Z,3.60
2018-11-03T16:22:56.153Z,2.83
2018-11-03T16:25:34.750Z,3.80
2018-11-03T16:28:10.868Z,2.53
2018-11-03T16:30:49.711Z,4.77
2018-11-03T16:33:28.086Z,2.90
2018-11-03T16:36:01.506Z,4.50
2018-11-03T16:38:38.026Z,3.20
2018-11-03T16:41:11.364Z,3.13
2018-11-03T16:43:47.772Z,2.57
2018-11-03T16:46:22.345Z,2.57
2018-11-03T16:49:02.390Z,2.40
2018-11-03T16:51:41.478Z,3.27
2018-11-03T16:54:17.239Z,4.30
2018-11-03T16:56:54.454Z,4.43
2018-11-03T16:59:29.234Z,5.53
2018-11-03T17:02:04.054Z,4.23
2018-11-03T17:04:39.395Z,5.00
2018-11-03T17:07:13.322Z,8.13
2018-11-03T17:09:46.816Z,4.80
2018-11-03T17:12:28.586Z,5.65
2018-11-03T17:15:04.524Z,5.37
2018-11-03T17:17:40.509Z,4.90
2018-11-03T17:20:19.574Z,8.57
2018-11-03T17:23:09.428Z,8.50
2018-11-03T17:25:46.104Z,6.93
2018-11-03T17:28:22.594Z,6.73
2018-11-03T17:30:57.345Z,5.07
2018-11-03T17:33:32.194Z,7.00
2018-11-03T17:36:06.097Z,5.07
2018-11-03T17:38:39.454Z,9.00
2018-11-03T17:41:21.675Z,6.17
2018-11-03T17:43:57.557Z,7.73
2018-11-03T17:46:36.978Z,8.13
2018-11-03T17:49:14.855Z,9.83
2018-11-03T17:51:57.493Z,7.17
2018-11-03T17:54:37.675Z,7.60
2018-11-03T17:57:11.853Z,11.10
2018-11-03T17:59:49.561Z,7.90
2018-11-03T18:02:25.629Z,6.93
2018-11-03T18:05:00.562Z,9.23
2018-11-03T18:07:40.921Z,9.13
2018-11-03T18:10:40.632Z,7.17
2018-11-03T18:13:27.892Z,5.68
2018-11-03T18:16:05.120Z,7.57
2018-11-03T18:18:42.731Z,8.57
2018-11-03T18:21:20.035Z,7.12
2018-11-03T18:23:55.484Z,5.37
2018-11-03T18:26:33.209Z,11.37
2018-11-03T18:29:10.157Z,9.30
2018-11-03T18:32:00.714Z,9.75
2018-11-03T18:34:46.662Z,9.80
2018-11-03T18:37:24.046Z,9.90
2018-11-03T18:40:05.745Z,8.57
2018-11-03T18:42:42.830Z,8.37
2018-11-03T18:45:34.578Z,11.83
2018-11-03T18:48:10.607Z,9.60
2018-11-03T18:50:44.179Z,10.63
2018-11-03T18:53:26.651Z,7.73
2018-11-03T18:56:03.288Z,10.03
2018-11-03T18:58:50.555Z,9.00
2018-11-03T19:01:38.285Z,11.77
2018-11-03T19:04:29.872Z,9.15
2018-11-03T19:07:09.664Z,7.53
2018-11-03T19:09:50.615Z,8.27
2018-11-03T19:12:25.984Z,10.37
2018-11-03T19:15:06.489Z,13.13
2018-11-03T19:17:48.563Z,9.77
2018-11-03T19:20:25.774Z,9.57
2018-11-03T19:22:59.483Z,10.90
2018-11-03T19:25:38.047Z,10.37
2018-11-03T19:28:15.975Z,8.63
2018-11-03T19:30:52.301Z,8.90
2018-11-03T19:33:35.860Z,9.83
2018-11-03T19:36:15.413Z,8.83
2018-11-03T19:39:01.885Z,8.95
2018-11-03T19:41:40.597Z,9.10
2018-11-03T19:44:18.006Z,8.67
2018-11-03T19:47:00.365Z,13.00
2018-11-03T19:49:36.154Z,12.90
2018-11-03T19:52:43.919Z,14.00
2018-11-03T19:55:20.829Z,10.50
2018-11-03T19:58:06.525Z,10.70
2018-11-03T20:00:43.576Z,13.60
2018-11-03T20:03:47.619Z,9.20
2018-11-03T20:06:28.944Z,8.95
2018-11-03T20:09:14.583Z,11.70
2018-11-03T20:11:51.140Z,11.83
2018-11-03T20:14:34.926Z,15.17
2018-11-03T20:17:15.774Z,15.33
2018-11-03T20:20:13.844Z,12.63
2018-11-03T20:22:56.590Z,13.55
2018-11-03T20:25:32.823Z,13.33
2018-11-03T20:28:11.240Z,16.17
2018-11-03T20:31:00.656Z,14.80
2018-11-03T20:33:47.704Z,19.00
2018-11-03T20:36:24.578Z,15.40
2018-11-03T20:39:04.789Z,16.30
2018-11-03T20:41:46.777Z,22.60
2018-11-03T20:48:06.422Z,10.70
2018-11-03T20:51:08.077Z,11.80
2018-11-03T20:53:49.582Z,14.73
2018-11-03T20:56:25.283Z,16.10
2018-11-03T20:59:00.519Z,19.07
2018-11-03T21:01:38.540Z,26.53
2018-11-03T21:04:13.385Z,21.97
2018-11-03T21:06:47.723Z,30.47
2018-11-03T21:09:25.146Z,32.73
2018-11-03T21:12:08.408Z,37.17
2018-11-03T21:14:46.199Z,39.00
2018-11-03T21:17:26.733Z,43.03
2018-11-03T21:20:04.023Z,37.80
2018-11-03T21:22:52.587Z,22.77
2018-11-03T21:25:31.800Z,27.03
2018-11-03T21:28:13.690Z,24.23
2018-11-03T21:30:48.348Z,25.43
2018-11-03T21:33:25.940Z,22.87
2018-11-03T21:36:07.724Z,22.77
2018-11-03T21:38:51.877Z,18.60
2018-11-03T21:41:34.088Z,22.47
2018-11-03T21:44:11.176Z,17.77
2018-11-03T21:46:58.943Z,17.27
2018-11-03T21:49:39.704Z,19.17
2018-11-03T21:52:19.549Z,17.37
2018-11-03T21:54:54.487Z,19.73
2018-11-03T21:57:33.507Z,20.23
2018-11-03T22:00:31.941Z,24.50
2018-11-03T22:03:11.366Z,20.27
2018-11-03T22:05:49.767Z,17.00
2018-11-03T22:08:36.669Z,18.70
2018-11-03T22:11:24.849Z,16.97
2018-11-03T22:14:17.753Z,20.67
2018-11-03T22:16:59.650Z,25.90
2018-11-03T22:19:40.550Z,17.70
2018-11-03T22:22:18.697Z,23.97
2018-11-03T22:24:55.456Z,25.58
2018-11-03T22:27:31.193Z,19.77
2018-11-03T22:30:14.542Z,19.00
2018-11-03T22:32:49.728Z,21.20
2018-11-03T22:35:26.231Z,26.00
2018-11-03T22:38:01.064Z,21.67
2018-11-03T22:40:38.151Z,22.77
2018-11-03T22:43:15.417Z,29.27
2018-11-03T22:45:52.572Z,36.70
2018-11-03T22:48:27.321Z,36.97
2018-11-03T22:54:03.982Z,51.97
2018-11-03T22:56:49.508Z,47.57
2018-11-03T22:59:42.694Z,52.13
2018-11-03T23:02:16.961Z,25.20
2018-11-03T23:04:53.935Z,27.15
2018-11-03T23:07:31.272Z,30.67
2018-11-03T23:10:07.682Z,29.23
2018-11-03T23:12:44.807Z,28.83
2018-11-03T23:15:22.325Z,24.80
2018-11-03T23:17:59.610Z,29.43
2018-11-03T23:20:33.455Z,25.80
2018-11-03T23:23:08.537Z,32.60
2018-11-03T23:25:42.842Z,30.07
2018-11-03T23:28:21.518Z,25.83
2018-11-03T23:31:03.592Z,26.13
2018-11-03T23:33:37.207Z,25.93
2018-11-03T23:36:12.651Z,27.00
2018-11-03T23:38:53.212Z,23.23
2018-11-03T23:41:28.624Z,23.17
2018-11-03T23:44:02.776Z,22.73
2018-11-03T23:46:36.778Z,23.53
2018-11-03T23:49:09.755Z,24.97
2018-11-03T23:51:43.489Z,32.33
2018-11-03T23:54:18.682Z,34.87
2018-11-03T23:56:54.177Z,34.57
2018-11-03T23:59:32.806Z,39.90
